SWA1401 KPVD-KMDW
Flight info
| Callsign | SWA1401 |
|---|---|
| Flight time | N/A |
| Altitude | 40000 |
| Route | PUT CTR HNK DJB FWA PANGG5 |
| Aircraft | B737/M-SDE2E3FGHIRWXY/LB1 |
Departure
| Time | 2026-05-07 22:33 |
|---|---|
| Airport | Rhode Island T. F. Green International Airport (KPVD) |
Arrival
| Time | N/A |
|---|---|
| Airport | Chicago Midway International Airport (KMDW) |
| Time | Latitude | Longitude | Altitude | Speed | Heading |
|---|---|---|---|---|---|
| 2026-05-07 22:08 | 41.72729 | -71.43459 | 65 ft | 0 kts | 164° |
| 2026-05-07 22:21 | 41.72741 | -71.43464 | 65 ft | 3 kts | 166° |
| 2026-05-07 22:21 | 41.72761 | -71.43470 | 57 ft | 3 kts | 168° |
| 2026-05-07 22:21 | 41.72781 | -71.43475 | 57 ft | 3 kts | 165° |
| 2026-05-07 22:21 | 41.72791 | -71.43481 | 56 ft | 1 kts | 111° |
| 2026-05-07 22:22 | 41.72793 | -71.43494 | 59 ft | 0 kts | 88° |
| 2026-05-07 22:22 | 41.72798 | -71.43486 | 56 ft | 1 kts | 35° |
| 2026-05-07 22:22 | 41.72810 | -71.43478 | 65 ft | 1 kts | 29° |
| 2026-05-07 22:22 | 41.72818 | -71.43468 | 63 ft | 1 kts | 45° |
| 2026-05-07 22:23 | 41.72824 | -71.43461 | 63 ft | 1 kts | 45° |
| 2026-05-07 22:23 | 41.72824 | -71.43460 | 63 ft | 0 kts | 45° |
| 2026-05-07 22:26 | 41.72833 | -71.43448 | 63 ft | 6 kts | 45° |
| 2026-05-07 22:26 | 41.72875 | -71.43393 | 66 ft | 9 kts | 44° |
| 2026-05-07 22:27 | 41.72900 | -71.43325 | 61 ft | 8 kts | 102° |
| 2026-05-07 22:27 | 41.72869 | -71.43249 | 65 ft | 12 kts | 123° |
| 2026-05-07 22:27 | 41.72812 | -71.43163 | 66 ft | 13 kts | 168° |
| 2026-05-07 22:27 | 41.72735 | -71.43211 | 63 ft | 13 kts | 212° |
| 2026-05-07 22:28 | 41.72647 | -71.43284 | 65 ft | 16 kts | 212° |
| 2026-05-07 22:28 | 41.72561 | -71.43319 | 63 ft | 13 kts | 146° |
| 2026-05-07 22:28 | 41.72543 | -71.43199 | 60 ft | 16 kts | 85° |
| 2026-05-07 22:28 | 41.72553 | -71.43033 | 58 ft | 19 kts | 85° |
| 2026-05-07 22:29 | 41.72553 | -71.42895 | 54 ft | 11 kts | 108° |
| 2026-05-07 22:29 | 41.72505 | -71.42788 | 53 ft | 16 kts | 122° |
| 2026-05-07 22:29 | 41.72441 | -71.42652 | 54 ft | 17 kts | 122° |
| 2026-05-07 22:29 | 41.72373 | -71.42522 | 58 ft | 17 kts | 137° |
| 2026-05-07 22:30 | 41.72283 | -71.42426 | 54 ft | 16 kts | 142° |
| 2026-05-07 22:30 | 41.72195 | -71.42334 | 64 ft | 16 kts | 142° |
| 2026-05-07 22:30 | 41.72112 | -71.42245 | 63 ft | 15 kts | 142° |
| 2026-05-07 22:30 | 41.72031 | -71.42160 | 65 ft | 14 kts | 141° |
| 2026-05-07 22:31 | 41.71954 | -71.42078 | 63 ft | 15 kts | 141° |
| 2026-05-07 22:31 | 41.71869 | -71.41988 | 62 ft | 15 kts | 142° |
| 2026-05-07 22:31 | 41.71832 | -71.41901 | 60 ft | 9 kts | 70° |
| 2026-05-07 22:31 | 41.71864 | -71.41848 | 60 ft | 5 kts | 13° |
| 2026-05-07 22:32 | 41.71882 | -71.41859 | 60 ft | 0 kts | 322° |
| 2026-05-07 22:32 | 41.71903 | -71.41881 | 62 ft | 24 kts | 322° |
| 2026-05-07 22:32 | 41.72259 | -71.42257 | 60 ft | 104 kts | 322° |
| 2026-05-07 22:32 | 41.72991 | -71.43030 | 270 ft | 145 kts | 321° |
| 2026-05-07 22:33 | 41.73774 | -71.43826 | 1163 ft | 143 kts | 320° |
| 2026-05-07 22:33 | 41.74646 | -71.44666 | 1693 ft | 168 kts | 320° |
| 2026-05-07 22:33 | 41.75457 | -71.45985 | 2017 ft | 200 kts | 305° |
| 2026-05-07 22:33 | 41.76323 | -71.47588 | 2416 ft | 221 kts | 305° |
| 2026-05-07 22:34 | 41.77220 | -71.49287 | 3147 ft | 226 kts | 305° |
| 2026-05-07 22:34 | 41.78145 | -71.51058 | 3678 ft | 242 kts | 305° |
| 2026-05-07 22:34 | 41.79135 | -71.52951 | 4438 ft | 252 kts | 305° |
| 2026-05-07 22:34 | 41.80142 | -71.54874 | 5566 ft | 252 kts | 305° |
| 2026-05-07 22:35 | 41.81152 | -71.56805 | 6654 ft | 252 kts | 304° |
| 2026-05-07 22:35 | 41.82160 | -71.58731 | 7704 ft | 254 kts | 303° |
| 2026-05-07 22:35 | 41.83172 | -71.60665 | 8788 ft | 253 kts | 303° |
| 2026-05-07 22:35 | 41.84182 | -71.62595 | 9801 ft | 255 kts | 302° |
| 2026-05-07 22:36 | 41.85220 | -71.64586 | 10417 ft | 271 kts | 301° |
| 2026-05-07 22:36 | 41.86353 | -71.66771 | 10635 ft | 299 kts | 301° |
| 2026-05-07 22:36 | 41.87591 | -71.69153 | 10843 ft | 324 kts | 301° |
| 2026-05-07 22:36 | 41.88909 | -71.71678 | 11437 ft | 335 kts | 300° |
| 2026-05-07 22:37 | 41.90253 | -71.74246 | 12269 ft | 337 kts | 299° |
| 2026-05-07 22:37 | 41.91608 | -71.76838 | 13141 ft | 341 kts | 298° |
| 2026-05-07 22:37 | 41.92972 | -71.79456 | 14018 ft | 343 kts | 297° |
| 2026-05-07 22:37 | 41.94344 | -71.82096 | 14806 ft | 347 kts | 297° |
| 2026-05-07 22:38 | 41.95654 | -71.84824 | 15571 ft | 347 kts | 291° |
| 2026-05-07 22:38 | 41.96648 | -71.87764 | 16352 ft | 346 kts | 285° |
| 2026-05-07 22:38 | 41.97257 | -71.89746 | 16880 ft | 348 kts | 285° |
| 2026-05-07 22:38 | 41.98479 | -71.93768 | 17900 ft | 354 kts | 284° |
| 2026-05-07 22:39 | 41.99110 | -71.95845 | 18370 ft | 357 kts | 284° |
| 2026-05-07 22:39 | 42.00365 | -71.99959 | 19263 ft | 361 kts | 284° |
| 2026-05-07 22:39 | 42.01323 | -72.03089 | 19949 ft | 363 kts | 284° |
| 2026-05-07 22:39 | 42.02291 | -72.06241 | 20626 ft | 366 kts | 284° |
| 2026-05-07 22:40 | 42.02950 | -72.08390 | 21034 ft | 368 kts | 284° |
| 2026-05-07 22:40 | 42.03930 | -72.11583 | 21651 ft | 371 kts | 284° |
| 2026-05-07 22:40 | 42.04919 | -72.14809 | 22270 ft | 374 kts | 284° |
| 2026-05-07 22:40 | 42.05903 | -72.18017 | 22876 ft | 377 kts | 284° |
| 2026-05-07 22:41 | 42.06904 | -72.21286 | 23449 ft | 380 kts | 283° |
| 2026-05-07 22:41 | 42.07915 | -72.24593 | 23923 ft | 383 kts | 283° |
| 2026-05-07 22:41 | 42.08930 | -72.27916 | 24430 ft | 385 kts | 284° |
| 2026-05-07 22:41 | 42.09952 | -72.31265 | 24893 ft | 388 kts | 284° |
| 2026-05-07 22:42 | 42.10982 | -72.34648 | 25320 ft | 392 kts | 284° |
| 2026-05-07 22:42 | 42.12018 | -72.38052 | 25763 ft | 394 kts | 284° |
| 2026-05-07 22:42 | 42.13057 | -72.41471 | 26193 ft | 396 kts | 284° |
| 2026-05-07 22:42 | 42.14106 | -72.44925 | 26606 ft | 399 kts | 284° |
| 2026-05-07 22:43 | 42.15157 | -72.48395 | 27003 ft | 402 kts | 284° |
| 2026-05-07 22:43 | 42.16215 | -72.51888 | 27386 ft | 404 kts | 283° |
| 2026-05-07 22:43 | 42.17279 | -72.55410 | 27763 ft | 407 kts | 283° |
| 2026-05-07 22:43 | 42.18349 | -72.58952 | 28136 ft | 409 kts | 283° |
| 2026-05-07 22:44 | 42.19423 | -72.62519 | 28457 ft | 412 kts | 284° |
| 2026-05-07 22:44 | 42.20507 | -72.66121 | 28724 ft | 416 kts | 284° |
| 2026-05-07 22:44 | 42.21596 | -72.69739 | 29116 ft | 416 kts | 284° |
| 2026-05-07 22:44 | 42.22683 | -72.73353 | 29634 ft | 414 kts | 284° |
| 2026-05-07 22:45 | 42.23761 | -72.76941 | 30121 ft | 412 kts | 284° |
| 2026-05-07 22:45 | 42.24835 | -72.80525 | 30531 ft | 411 kts | 284° |
| 2026-05-07 22:45 | 42.25903 | -72.84098 | 30901 ft | 411 kts | 284° |
| 2026-05-07 22:45 | 42.26968 | -72.87667 | 31304 ft | 410 kts | 284° |
| 2026-05-07 22:46 | 42.27879 | -72.91268 | 31673 ft | 401 kts | 276° |
| 2026-05-07 22:46 | 42.28373 | -72.94940 | 32066 ft | 394 kts | 271° |
| 2026-05-07 22:46 | 42.28618 | -72.98598 | 32492 ft | 390 kts | 266° |
| 2026-05-07 22:46 | 42.28542 | -73.02235 | 32815 ft | 385 kts | 260° |
| 2026-05-07 22:47 | 42.28238 | -73.05814 | 33215 ft | 382 kts | 259° |
| 2026-05-07 22:47 | 42.27919 | -73.09368 | 33584 ft | 381 kts | 259° |
| 2026-05-07 22:47 | 42.27596 | -73.12909 | 33938 ft | 380 kts | 259° |
| 2026-05-07 22:47 | 42.27275 | -73.16447 | 34221 ft | 379 kts | 259° |
| 2026-05-07 22:48 | 42.26956 | -73.19977 | 34463 ft | 379 kts | 259° |
| 2026-05-07 22:48 | 42.26639 | -73.23509 | 34736 ft | 379 kts | 259° |
| 2026-05-07 22:48 | 42.26323 | -73.27041 | 34986 ft | 379 kts | 259° |
| 2026-05-07 22:48 | 42.26008 | -73.30567 | 35311 ft | 378 kts | 259° |
| 2026-05-07 22:49 | 42.25694 | -73.34081 | 35574 ft | 377 kts | 259° |
| 2026-05-07 22:49 | 42.25379 | -73.37597 | 35802 ft | 378 kts | 259° |
| 2026-05-07 22:49 | 42.25064 | -73.41114 | 36025 ft | 377 kts | 259° |
| 2026-05-07 22:49 | 42.24747 | -73.44629 | 36239 ft | 377 kts | 259° |
| 2026-05-07 22:50 | 42.24429 | -73.48143 | 36452 ft | 377 kts | 259° |
| 2026-05-07 22:50 | 42.24110 | -73.51656 | 36695 ft | 377 kts | 259° |
| 2026-05-07 22:50 | 42.23791 | -73.55170 | 36895 ft | 377 kts | 259° |
| 2026-05-07 22:50 | 42.23476 | -73.58624 | 37170 ft | 374 kts | 259° |
| 2026-05-07 22:51 | 42.23158 | -73.62099 | 37455 ft | 373 kts | 259° |
| 2026-05-07 22:51 | 42.22838 | -73.65569 | 37672 ft | 374 kts | 259° |
| 2026-05-07 22:51 | 42.22515 | -73.69062 | 37831 ft | 375 kts | 259° |
| 2026-05-07 22:51 | 42.22192 | -73.72548 | 38052 ft | 374 kts | 259° |
| 2026-05-07 22:52 | 42.21869 | -73.76030 | 38275 ft | 374 kts | 259° |
| 2026-05-07 22:52 | 42.21545 | -73.79503 | 38490 ft | 373 kts | 259° |
| 2026-05-07 22:52 | 42.21221 | -73.82978 | 38651 ft | 373 kts | 259° |
| 2026-05-07 22:52 | 42.20895 | -73.86449 | 38792 ft | 374 kts | 259° |
| 2026-05-07 22:53 | 42.20566 | -73.89936 | 38892 ft | 375 kts | 259° |
| 2026-05-07 22:53 | 42.19904 | -73.96933 | 39071 ft | 377 kts | 259° |
| 2026-05-07 22:53 | 42.19570 | -74.00439 | 39214 ft | 377 kts | 259° |
| 2026-05-07 22:54 | 42.19235 | -74.03950 | 39360 ft | 377 kts | 260° |
| 2026-05-07 22:54 | 42.18900 | -74.07456 | 39485 ft | 378 kts | 260° |
| 2026-05-07 22:54 | 42.18562 | -74.10975 | 39584 ft | 379 kts | 260° |
| 2026-05-07 22:54 | 42.18223 | -74.14494 | 39699 ft | 379 kts | 260° |
| 2026-05-07 22:55 | 42.17883 | -74.18020 | 39809 ft | 379 kts | 260° |
| 2026-05-07 22:55 | 42.17196 | -74.25090 | 39884 ft | 381 kts | 260° |
| 2026-05-07 22:56 | 42.16505 | -74.32159 | 39880 ft | 379 kts | 260° |
| 2026-05-07 22:56 | 42.15817 | -74.39153 | 39891 ft | 379 kts | 260° |
| 2026-05-07 22:57 | 42.15121 | -74.46184 | 39878 ft | 378 kts | 260° |
| 2026-05-07 22:57 | 42.14420 | -74.53212 | 39878 ft | 378 kts | 260° |
| 2026-05-07 22:58 | 42.13716 | -74.60229 | 39886 ft | 378 kts | 260° |
| 2026-05-07 22:58 | 42.13009 | -74.67235 | 39882 ft | 378 kts | 259° |
| 2026-05-07 22:59 | 42.12296 | -74.74254 | 39887 ft | 378 kts | 260° |
| 2026-05-07 22:59 | 42.11579 | -74.81276 | 39891 ft | 379 kts | 259° |
| 2026-05-07 23:00 | 42.10856 | -74.88305 | 39898 ft | 379 kts | 259° |
| 2026-05-07 23:00 | 42.10127 | -74.95350 | 39896 ft | 380 kts | 259° |
| 2026-05-07 23:01 | 42.09395 | -75.02390 | 39888 ft | 379 kts | 259° |
| 2026-05-07 23:01 | 42.08658 | -75.09433 | 39901 ft | 381 kts | 260° |
| 2026-05-07 23:02 | 42.07912 | -75.16513 | 39897 ft | 383 kts | 260° |
| 2026-05-07 23:02 | 42.07159 | -75.23627 | 39892 ft | 385 kts | 260° |
| 2026-05-07 23:03 | 42.06399 | -75.30751 | 39875 ft | 384 kts | 261° |
| 2026-05-07 23:03 | 42.05774 | -75.37875 | 39888 ft | 383 kts | 263° |
| 2026-05-07 23:04 | 42.05281 | -75.45009 | 39899 ft | 382 kts | 263° |
| 2026-05-07 23:04 | 42.04784 | -75.52130 | 39893 ft | 382 kts | 263° |
| 2026-05-07 23:05 | 42.04267 | -75.59238 | 39894 ft | 382 kts | 262° |
| 2026-05-07 23:05 | 42.03740 | -75.66299 | 39893 ft | 382 kts | 262° |
| 2026-05-07 23:06 | 42.03200 | -75.73445 | 39901 ft | 381 kts | 262° |
| 2026-05-07 23:06 | 42.02661 | -75.80499 | 39902 ft | 382 kts | 262° |
| 2026-05-07 23:07 | 42.02112 | -75.87621 | 39899 ft | 384 kts | 262° |
| 2026-05-07 23:07 | 42.01557 | -75.94775 | 39890 ft | 385 kts | 262° |
| 2026-05-07 23:08 | 42.00996 | -76.01937 | 39891 ft | 385 kts | 262° |
| 2026-05-07 23:08 | 42.00431 | -76.09104 | 39891 ft | 385 kts | 262° |
| 2026-05-07 23:09 | 41.99861 | -76.16272 | 39895 ft | 386 kts | 262° |
| 2026-05-07 23:09 | 41.99284 | -76.23465 | 39887 ft | 388 kts | 262° |
| 2026-05-07 23:10 | 41.98701 | -76.30678 | 39903 ft | 389 kts | 262° |
| 2026-05-07 23:10 | 41.98112 | -76.37904 | 39882 ft | 389 kts | 262° |